createdAt,value
2023-05-22T00:01:56.815Z,11.60
2023-05-22T00:04:30.096Z,11.58
2023-05-22T00:06:58.071Z,11.57
2023-05-22T00:09:26.340Z,11.55
2023-05-22T00:11:54.194Z,11.53
2023-05-22T00:14:21.944Z,11.50
2023-05-22T00:16:50.402Z,11.49
2023-05-22T00:19:19.012Z,11.47
2023-05-22T00:21:46.982Z,11.44
2023-05-22T00:24:14.908Z,11.41
2023-05-22T00:26:42.646Z,11.37
2023-05-22T00:29:11.012Z,11.34
2023-05-22T00:31:38.697Z,11.32
2023-05-22T00:34:06.490Z,11.29
2023-05-22T00:36:34.349Z,11.25
2023-05-22T00:39:02.132Z,11.24
2023-05-22T00:41:34.009Z,11.21
2023-05-22T00:44:02.783Z,11.18
2023-05-22T00:46:31.383Z,11.15
2023-05-22T00:48:59.191Z,11.12
2023-05-22T00:51:26.995Z,11.10
2023-05-22T00:53:54.814Z,11.08
2023-05-22T00:56:22.761Z,11.03
2023-05-22T00:58:50.883Z,10.99
2023-05-22T01:01:18.988Z,10.95
2023-05-22T01:03:47.161Z,10.93
2023-05-22T01:06:18.328Z,10.90
2023-05-22T01:08:46.172Z,10.89
2023-05-22T01:11:22.385Z,10.88
2023-05-22T01:14:10.842Z,10.86
2023-05-22T01:16:42.000Z,10.83
2023-05-22T01:19:47.688Z,10.82
2023-05-22T01:22:51.149Z,10.80
2023-05-22T01:25:36.072Z,10.77
2023-05-22T01:28:21.954Z,10.75
2023-05-22T01:30:58.618Z,10.72
2023-05-22T01:33:28.933Z,10.69
2023-05-22T01:36:00.274Z,10.67
2023-05-22T01:38:29.196Z,10.65
2023-05-22T01:40:58.350Z,10.62
2023-05-22T01:43:26.029Z,10.60
2023-05-22T01:45:53.986Z,10.58
2023-05-22T01:48:21.671Z,10.56
2023-05-22T01:50:52.267Z,10.54
2023-05-22T01:53:28.742Z,10.51
2023-05-22T01:56:21.108Z,10.49
2023-05-22T01:58:56.492Z,10.46
2023-05-22T02:01:28.999Z,10.42
2023-05-22T02:03:58.179Z,10.39
2023-05-22T02:06:28.873Z,10.38
2023-05-22T02:08:57.578Z,10.35
2023-05-22T02:11:28.551Z,10.33
2023-05-22T02:13:57.475Z,10.31
2023-05-22T02:16:25.484Z,10.28
2023-05-22T02:19:05.928Z,10.25
2023-05-22T02:21:34.922Z,10.22
2023-05-22T02:24:03.480Z,10.19
2023-05-22T02:26:31.299Z,10.16
2023-05-22T02:28:59.121Z,10.14
2023-05-22T02:31:27.064Z,10.12
2023-05-22T02:33:54.951Z,10.09
2023-05-22T02:36:23.066Z,10.05
2023-05-22T02:38:50.902Z,10.02
2023-05-22T02:41:18.766Z,9.99
2023-05-22T02:43:46.458Z,9.98
2023-05-22T02:46:14.375Z,9.95
2023-05-22T02:48:42.122Z,9.94
2023-05-22T02:51:09.909Z,9.93
2023-05-22T02:53:40.232Z,9.92
2023-05-22T02:56:10.710Z,9.91
2023-05-22T02:58:39.145Z,9.90
2023-05-22T03:01:06.845Z,9.89
2023-05-22T03:03:34.964Z,9.88
2023-05-22T03:06:04.265Z,9.88
2023-05-22T03:08:32.328Z,9.87
2023-05-22T03:11:00.643Z,9.88
2023-05-22T03:13:28.402Z,9.88
2023-05-22T03:15:56.144Z,9.90
2023-05-22T03:18:25.961Z,9.90
2023-05-22T03:20:55.062Z,9.92
2023-05-22T03:23:22.788Z,9.94
2023-05-22T03:25:51.332Z,9.96
2023-05-22T03:28:19.053Z,9.99
2023-05-22T03:30:47.579Z,10.03
2023-05-22T03:33:15.457Z,10.06
2023-05-22T03:35:44.691Z,10.09
2023-05-22T03:38:12.414Z,10.13
2023-05-22T03:40:40.276Z,10.19
2023-05-22T03:43:08.196Z,10.24
2023-05-22T03:45:35.934Z,10.29
2023-05-22T03:48:03.967Z,10.36
2023-05-22T03:50:31.778Z,10.40
2023-05-22T03:52:59.482Z,10.45
2023-05-22T03:55:27.225Z,10.51
2023-05-22T03:57:55.005Z,10.57
2023-05-22T04:00:22.872Z,10.63
2023-05-22T04:02:51.389Z,10.69
2023-05-22T04:05:19.286Z,10.76
2023-05-22T04:07:47.045Z,10.84
2023-05-22T04:10:14.726Z,10.92
2023-05-22T04:12:42.480Z,11.01
2023-05-22T04:15:10.255Z,11.09
2023-05-22T04:17:40.950Z,11.17
2023-05-22T04:20:09.734Z,11.25
2023-05-22T04:22:38.635Z,11.33
2023-05-22T04:25:06.784Z,11.42
2023-05-22T04:27:35.721Z,11.52
2023-05-22T04:30:04.067Z,11.62
2023-05-22T04:32:31.815Z,11.72
2023-05-22T04:35:00.837Z,11.83
2023-05-22T04:37:32.009Z,11.93
2023-05-22T04:40:06.081Z,12.04
2023-05-22T04:42:37.458Z,12.15
2023-05-22T04:45:05.861Z,12.27
2023-05-22T04:47:33.598Z,12.38
2023-05-22T04:50:02.565Z,12.50
2023-05-22T04:52:30.407Z,12.62
2023-05-22T04:55:00.687Z,12.75
2023-05-22T04:57:29.840Z,12.89
2023-05-22T04:59:58.243Z,13.02
2023-05-22T05:02:26.065Z,13.15
2023-05-22T05:04:54.077Z,13.29
2023-05-22T05:07:21.795Z,13.44
2023-05-22T05:09:49.711Z,13.58
2023-05-22T05:12:17.635Z,13.72
2023-05-22T05:14:45.634Z,13.85
2023-05-22T05:17:13.915Z,13.96
2023-05-22T05:19:41.726Z,14.09
2023-05-22T05:22:09.523Z,14.20
2023-05-22T05:24:37.324Z,14.31
2023-05-22T05:27:05.298Z,14.43
2023-05-22T05:29:33.100Z,14.56
2023-05-22T05:32:00.912Z,14.68
2023-05-22T05:34:28.664Z,14.76
2023-05-22T05:36:58.052Z,14.83
2023-05-22T05:39:25.867Z,14.89
2023-05-22T05:41:53.587Z,14.94
2023-05-22T05:44:21.669Z,14.99
2023-05-22T05:46:49.485Z,15.03
2023-05-22T05:49:17.209Z,15.09
2023-05-22T05:51:44.940Z,15.15
2023-05-22T05:54:12.789Z,15.22
2023-05-22T05:56:40.784Z,15.33
2023-05-22T05:59:09.860Z,15.46
2023-05-22T06:01:39.470Z,15.60
2023-05-22T06:04:09.099Z,15.74
2023-05-22T06:06:36.860Z,15.89
2023-05-22T06:09:07.993Z,16.04
2023-05-22T06:11:36.666Z,16.21
2023-05-22T06:14:07.425Z,16.38
2023-05-22T06:16:35.244Z,16.54
2023-05-22T06:19:04.642Z,16.70
2023-05-22T06:21:32.471Z,16.89
2023-05-22T06:24:00.296Z,17.05
2023-05-22T06:26:28.191Z,17.21
2023-05-22T06:28:55.991Z,17.36
2023-05-22T06:31:24.634Z,17.50
2023-05-22T06:33:52.596Z,17.65
2023-05-22T06:36:20.518Z,17.79
2023-05-22T06:38:49.751Z,17.93
2023-05-22T06:41:17.637Z,18.02
2023-05-22T06:43:45.426Z,18.10
2023-05-22T06:46:13.508Z,18.20
2023-05-22T06:48:42.007Z,18.30
2023-05-22T06:51:11.669Z,18.41
2023-05-22T06:53:39.677Z,18.56
2023-05-22T06:56:07.540Z,18.69
2023-05-22T06:58:35.295Z,18.81
2023-05-22T07:01:03.246Z,18.91
2023-05-22T07:03:31.069Z,19.00
2023-05-22T07:05:59.762Z,19.08
2023-05-22T07:08:30.337Z,19.16
2023-05-22T07:10:58.434Z,19.24
2023-05-22T07:13:26.141Z,19.32
2023-05-22T07:15:54.409Z,19.41
2023-05-22T07:18:22.233Z,19.53
2023-05-22T07:20:50.037Z,19.63
2023-05-22T07:23:17.769Z,19.74
2023-05-22T07:25:45.519Z,19.84
2023-05-22T07:28:13.242Z,19.97
2023-05-22T07:30:41.607Z,20.10
2023-05-22T07:33:09.526Z,20.23
2023-05-22T07:35:37.767Z,20.35
2023-05-22T07:38:05.555Z,20.48
2023-05-22T07:40:33.246Z,20.61
2023-05-22T07:43:01.006Z,20.74
2023-05-22T07:45:28.739Z,20.86
2023-05-22T07:47:59.106Z,20.97
2023-05-22T07:50:27.092Z,21.07
2023-05-22T07:52:54.813Z,21.17
2023-05-22T07:55:22.774Z,21.27
2023-05-22T07:57:51.476Z,21.33
2023-05-22T08:00:19.949Z,21.39
2023-05-22T08:02:47.980Z,21.45
2023-05-22T08:05:16.032Z,21.51
2023-05-22T08:07:43.891Z,21.55
2023-05-22T08:10:15.999Z,21.59
2023-05-22T08:12:43.762Z,21.62
2023-05-22T08:15:12.068Z,21.69
2023-05-22T08:17:40.143Z,21.77
2023-05-22T08:20:09.534Z,21.84
2023-05-22T08:22:39.245Z,21.90
2023-05-22T08:25:07.211Z,21.92
2023-05-22T08:27:35.144Z,21.94
2023-05-22T08:30:04.763Z,21.96
2023-05-22T08:32:32.674Z,21.99
2023-05-22T08:35:01.661Z,22.02
2023-05-22T08:37:29.467Z,22.02
2023-05-22T08:39:57.142Z,22.02
2023-05-22T08:42:25.273Z,22.04
2023-05-22T08:44:55.468Z,22.07
2023-05-22T08:47:26.090Z,22.14
2023-05-22T08:49:54.987Z,22.22
2023-05-22T08:52:26.403Z,22.33
2023-05-22T08:54:56.093Z,22.38
2023-05-22T08:57:25.000Z,22.45
2023-05-22T08:59:53.156Z,22.53
2023-05-22T09:02:21.904Z,22.60
2023-05-22T09:04:49.802Z,22.68
2023-05-22T09:07:17.514Z,22.74
2023-05-22T09:09:45.202Z,22.77
2023-05-22T09:12:13.874Z,22.83
2023-05-22T09:14:43.068Z,22.81
2023-05-22T09:17:15.700Z,22.70
2023-05-22T09:19:47.317Z,22.64
2023-05-22T09:22:15.148Z,22.68
2023-05-22T09:24:47.194Z,22.74
2023-05-22T09:27:14.920Z,22.77
2023-05-22T09:29:51.049Z,22.85
2023-05-22T09:32:20.113Z,23.00
2023-05-22T09:34:47.969Z,23.02
2023-05-22T09:37:16.763Z,23.00
2023-05-22T09:39:46.556Z,22.94
2023-05-22T09:42:18.110Z,22.92
2023-05-22T09:44:49.859Z,22.98
2023-05-22T09:47:17.898Z,23.09
2023-05-22T09:49:46.383Z,23.15
2023-05-22T09:52:15.759Z,23.14
2023-05-22T09:54:54.003Z,23.17
2023-05-22T09:57:24.104Z,23.29
2023-05-22T09:59:54.998Z,23.41
2023-05-22T10:02:24.321Z,23.56
2023-05-22T10:04:53.522Z,23.73
2023-05-22T10:07:37.582Z,23.85
2023-05-22T10:10:11.453Z,23.89
2023-05-22T10:12:44.614Z,23.86
2023-05-22T10:15:13.019Z,23.81
2023-05-22T10:17:42.142Z,23.83
2023-05-22T10:20:11.740Z,23.88
2023-05-22T10:22:39.510Z,23.95
2023-05-22T10:25:10.443Z,24.07
2023-05-22T10:27:40.535Z,24.11
2023-05-22T10:30:20.347Z,24.14
2023-05-22T10:32:55.167Z,24.16
2023-05-22T10:35:52.916Z,24.11
2023-05-22T10:38:44.198Z,23.96
2023-05-22T10:41:12.668Z,23.77
2023-05-22T10:43:48.343Z,23.65
2023-05-22T10:46:16.643Z,23.55
2023-05-22T10:48:46.802Z,23.45
2023-05-22T10:51:18.189Z,23.36
2023-05-22T10:53:53.234Z,23.30
2023-05-22T10:56:24.434Z,23.28
2023-05-22T10:58:58.062Z,23.32
2023-05-22T11:01:26.736Z,23.30
2023-05-22T11:03:55.983Z,23.29
2023-05-22T11:06:31.798Z,23.24
2023-05-22T11:09:00.010Z,23.18
2023-05-22T11:11:28.183Z,23.13
2023-05-22T11:14:03.506Z,23.07
2023-05-22T11:16:38.076Z,23.04
2023-05-22T11:19:22.658Z,23.05
2023-05-22T11:21:51.529Z,23.04
2023-05-22T11:24:19.550Z,23.03
2023-05-22T11:27:02.769Z,23.03
2023-05-22T11:29:31.146Z,23.00
2023-05-22T11:31:59.927Z,22.96
2023-05-22T11:34:28.083Z,22.89
2023-05-22T11:37:00.011Z,22.81
2023-05-22T11:39:28.198Z,22.74
2023-05-22T11:41:56.190Z,22.69
2023-05-22T11:44:24.053Z,22.70
2023-05-22T11:46:52.640Z,22.82
2023-05-22T11:49:24.100Z,23.00
2023-05-22T11:51:51.963Z,23.21
2023-05-22T11:54:19.899Z,23.34
2023-05-22T11:56:48.376Z,23.48
2023-05-22T11:59:16.598Z,23.58
2023-05-22T12:01:44.436Z,23.71
2023-05-22T12:04:12.397Z,23.81
2023-05-22T12:06:40.313Z,23.92
2023-05-22T12:09:09.123Z,23.95
2023-05-22T12:11:37.529Z,23.91
2023-05-22T12:14:05.779Z,23.84
2023-05-22T12:16:36.868Z,23.73
2023-05-22T12:19:09.560Z,23.62
2023-05-22T12:21:42.277Z,23.52
2023-05-22T12:24:10.729Z,23.45
2023-05-22T12:26:38.423Z,23.47
2023-05-22T12:29:06.397Z,23.59
2023-05-22T12:31:39.003Z,23.76
2023-05-22T12:34:08.597Z,23.96
2023-05-22T12:36:42.246Z,24.09
2023-05-22T12:39:11.996Z,24.15
2023-05-22T12:41:40.163Z,24.16
2023-05-22T12:44:08.284Z,24.08
2023-05-22T12:46:36.427Z,23.94
2023-05-22T12:49:04.296Z,23.85
2023-05-22T12:51:32.934Z,23.87
2023-05-22T12:54:02.101Z,23.96
2023-05-22T12:56:30.825Z,24.05
2023-05-22T12:58:58.955Z,24.10
2023-05-22T13:01:27.176Z,24.15
2023-05-22T13:03:54.975Z,24.17
2023-05-22T13:06:22.729Z,24.13
2023-05-22T13:08:51.147Z,24.07
2023-05-22T13:11:20.157Z,23.98
2023-05-22T13:13:47.888Z,23.91
2023-05-22T13:16:15.620Z,23.82
2023-05-22T13:18:44.186Z,23.78
2023-05-22T13:21:13.603Z,23.80
2023-05-22T13:23:42.296Z,23.85
2023-05-22T13:26:10.060Z,23.86
2023-05-22T13:28:37.806Z,23.82
2023-05-22T13:31:05.637Z,23.78
2023-05-22T13:33:33.384Z,23.72
2023-05-22T13:36:01.190Z,23.66
2023-05-22T13:38:28.946Z,23.62
2023-05-22T13:40:56.671Z,23.56
2023-05-22T13:43:24.374Z,23.55
2023-05-22T13:45:52.151Z,23.58
2023-05-22T13:48:20.185Z,23.61
2023-05-22T13:50:47.924Z,23.70
2023-05-22T13:53:20.982Z,23.80
2023-05-22T13:55:48.894Z,23.90
2023-05-22T13:58:16.740Z,23.93
2023-05-22T14:00:44.678Z,23.89
2023-05-22T14:03:17.501Z,23.83
2023-05-22T14:05:45.785Z,23.85
2023-05-22T14:08:13.616Z,23.91
2023-05-22T14:10:42.271Z,23.99
2023-05-22T14:13:10.050Z,24.06
2023-05-22T14:15:38.067Z,24.13
2023-05-22T14:18:06.039Z,24.20
2023-05-22T14:20:34.238Z,24.29
2023-05-22T14:23:02.019Z,24.36
2023-05-22T14:25:29.857Z,24.44
2023-05-22T14:27:57.886Z,24.51
2023-05-22T14:30:25.855Z,24.55
2023-05-22T14:32:53.649Z,24.57
2023-05-22T14:35:21.570Z,24.58
2023-05-22T14:37:49.539Z,24.58
2023-05-22T14:40:17.390Z,24.53
2023-05-22T14:42:45.801Z,24.47
2023-05-22T14:45:13.632Z,24.47
2023-05-22T14:47:43.104Z,24.49
2023-05-22T14:50:19.008Z,24.48
2023-05-22T14:52:49.426Z,24.43
2023-05-22T14:55:17.762Z,24.39
2023-05-22T14:57:45.982Z,24.35
2023-05-22T15:00:15.279Z,24.34
2023-05-22T15:02:43.220Z,24.33
2023-05-22T15:05:11.736Z,24.32
2023-05-22T15:07:44.459Z,24.26
2023-05-22T15:10:13.234Z,24.23
2023-05-22T15:12:41.223Z,24.18
2023-05-22T15:15:09.178Z,24.16
2023-05-22T15:17:36.889Z,24.14
2023-05-22T15:20:05.675Z,24.10
2023-05-22T15:22:33.401Z,24.05
2023-05-22T15:25:09.694Z,23.99
2023-05-22T15:27:39.057Z,23.95
2023-05-22T15:30:09.809Z,23.91
2023-05-22T15:32:38.066Z,23.90
2023-05-22T15:35:07.148Z,23.89
2023-05-22T15:37:36.540Z,23.89
2023-05-22T15:40:06.065Z,23.86
2023-05-22T15:42:33.775Z,23.83
2023-05-22T15:45:01.940Z,23.91
2023-05-22T15:47:29.974Z,24.15
2023-05-22T15:49:57.819Z,24.46
2023-05-22T15:52:25.718Z,24.71
2023-05-22T15:54:54.969Z,25.12
2023-05-22T15:57:23.984Z,25.66
2023-05-22T15:59:51.951Z,25.69
2023-05-22T16:02:19.739Z,25.49
2023-05-22T16:04:49.238Z,25.22
2023-05-22T16:07:18.995Z,24.94
2023-05-22T16:09:47.507Z,24.66
2023-05-22T16:12:15.494Z,24.55
2023-05-22T16:14:43.336Z,24.65
2023-05-22T16:17:11.255Z,24.57
2023-05-22T16:19:39.006Z,24.40
2023-05-22T16:22:06.826Z,24.30
2023-05-22T16:24:34.555Z,24.17
2023-05-22T16:27:02.492Z,23.98
2023-05-22T16:29:32.312Z,23.81
2023-05-22T16:32:00.197Z,23.68
2023-05-22T16:34:29.719Z,23.57
2023-05-22T16:36:57.477Z,23.45
2023-05-22T16:39:27.071Z,23.34
2023-05-22T16:41:54.901Z,23.24
2023-05-22T16:44:22.644Z,23.18
2023-05-22T16:46:50.633Z,23.12
2023-05-22T16:49:18.394Z,23.05
2023-05-22T16:51:46.159Z,22.97
2023-05-22T16:54:13.912Z,22.84
2023-05-22T16:56:42.694Z,22.73
2023-05-22T16:59:10.567Z,22.70
2023-05-22T17:01:38.420Z,22.75
2023-05-22T17:04:06.264Z,22.72
2023-05-22T17:06:35.552Z,22.64
2023-05-22T17:09:03.575Z,22.54
2023-05-22T17:11:31.317Z,22.45
2023-05-22T17:13:59.184Z,22.42
2023-05-22T17:16:26.949Z,22.37
2023-05-22T17:18:55.182Z,22.26
2023-05-22T17:21:24.350Z,22.15
2023-05-22T17:23:52.289Z,22.01
2023-05-22T17:26:20.198Z,21.89
2023-05-22T17:28:47.879Z,21.77
2023-05-22T17:31:16.493Z,21.68
2023-05-22T17:33:44.352Z,21.57
2023-05-22T17:36:12.347Z,21.47
2023-05-22T17:38:40.213Z,21.37
2023-05-22T17:41:08.499Z,21.27
2023-05-22T17:43:38.298Z,21.17
2023-05-22T17:46:06.574Z,21.06
2023-05-22T17:48:34.720Z,20.96
2023-05-22T17:51:03.629Z,20.85
2023-05-22T17:53:34.905Z,20.75
2023-05-22T17:56:04.695Z,20.62
2023-05-22T17:58:32.875Z,20.51
2023-05-22T18:01:00.668Z,20.39
2023-05-22T18:03:28.818Z,20.26
2023-05-22T18:05:56.986Z,20.14
2023-05-22T18:08:25.025Z,20.01
2023-05-22T18:10:52.739Z,19.88
2023-05-22T18:13:20.502Z,19.75
2023-05-22T18:15:50.136Z,19.62
2023-05-22T18:18:18.164Z,19.47
2023-05-22T18:20:46.404Z,19.33
2023-05-22T18:23:14.314Z,19.19
2023-05-22T18:25:42.175Z,19.04
2023-05-22T18:28:10.165Z,18.91
2023-05-22T18:30:38.112Z,18.78
2023-05-22T18:33:06.184Z,18.64
2023-05-22T18:35:34.008Z,18.48
2023-05-22T18:38:01.996Z,18.35
2023-05-22T18:40:29.709Z,18.22
2023-05-22T18:42:57.422Z,18.09
2023-05-22T18:45:25.118Z,17.96
2023-05-22T18:47:53.587Z,17.83
2023-05-22T18:50:23.409Z,17.71
2023-05-22T18:52:51.575Z,17.59
2023-05-22T18:55:19.415Z,17.48
2023-05-22T18:57:47.156Z,17.38
2023-05-22T19:00:14.967Z,17.28
2023-05-22T19:02:42.759Z,17.17
2023-05-22T19:05:10.852Z,17.05
2023-05-22T19:07:38.842Z,16.92
2023-05-22T19:10:08.303Z,16.80
2023-05-22T19:12:36.170Z,16.69
2023-05-22T19:15:05.477Z,16.59
2023-05-22T19:17:33.380Z,16.49
2023-05-22T19:20:03.476Z,16.39
2023-05-22T19:22:32.009Z,16.28
2023-05-22T19:24:59.851Z,16.18
2023-05-22T19:27:27.678Z,16.08
2023-05-22T19:29:56.723Z,15.99
2023-05-22T19:32:24.421Z,15.92
2023-05-22T19:34:52.137Z,15.83
2023-05-22T19:37:19.849Z,15.74
2023-05-22T19:39:47.648Z,15.66
2023-05-22T19:42:15.395Z,15.58
2023-05-22T19:44:43.156Z,15.49
2023-05-22T19:47:11.067Z,15.41
2023-05-22T19:49:38.765Z,15.34
2023-05-22T19:52:06.816Z,15.26
2023-05-22T19:54:35.804Z,15.18
2023-05-22T19:57:03.639Z,15.11
2023-05-22T19:59:31.384Z,15.05
2023-05-22T20:01:59.478Z,14.97
2023-05-22T20:04:27.428Z,14.91
2023-05-22T20:06:55.380Z,14.85
2023-05-22T20:09:23.105Z,14.79
2023-05-22T20:11:50.907Z,14.73
2023-05-22T20:14:20.943Z,14.68
2023-05-22T20:16:49.005Z,14.63
2023-05-22T20:19:17.672Z,14.58
2023-05-22T20:21:49.017Z,14.53
2023-05-22T20:24:21.127Z,14.48
2023-05-22T20:26:49.085Z,14.43
2023-05-22T20:29:17.687Z,14.38
2023-05-22T20:31:46.095Z,14.33
2023-05-22T20:34:14.074Z,14.28
2023-05-22T20:36:42.743Z,14.23
2023-05-22T20:39:12.318Z,14.18
2023-05-22T20:41:40.057Z,14.14
2023-05-22T20:44:08.178Z,14.10
2023-05-22T20:46:35.941Z,14.05
2023-05-22T20:49:05.108Z,13.99
2023-05-22T20:51:33.637Z,13.95
2023-05-22T20:54:01.532Z,13.90
2023-05-22T20:56:30.187Z,13.86
2023-05-22T20:58:58.012Z,13.82
2023-05-22T21:01:25.820Z,13.78
2023-05-22T21:03:56.564Z,13.73
2023-05-22T21:06:24.534Z,13.68
2023-05-22T21:08:54.291Z,13.65
2023-05-22T21:11:22.221Z,13.60
2023-05-22T21:13:49.966Z,13.57
2023-05-22T21:16:17.671Z,13.53
2023-05-22T21:18:45.852Z,13.49
2023-05-22T21:21:20.428Z,13.45
2023-05-22T21:23:49.285Z,13.41
2023-05-22T21:26:17.117Z,13.37
2023-05-22T21:28:45.053Z,13.33
2023-05-22T21:31:12.848Z,13.29
2023-05-22T21:33:42.728Z,13.24
2023-05-22T21:36:10.477Z,13.21
2023-05-22T21:38:38.357Z,13.18
2023-05-22T21:41:06.227Z,13.15
2023-05-22T21:43:34.037Z,13.10
2023-05-22T21:46:01.817Z,13.06
2023-05-22T21:48:29.626Z,13.02
2023-05-22T21:50:58.144Z,12.99
2023-05-22T21:53:26.133Z,12.96
2023-05-22T21:55:53.924Z,12.93
2023-05-22T21:58:21.889Z,12.91
2023-05-22T22:00:49.615Z,12.88
2023-05-22T22:03:18.292Z,12.85
2023-05-22T22:05:46.360Z,12.82
2023-05-22T22:08:14.099Z,12.78
2023-05-22T22:10:42.237Z,12.73
2023-05-22T22:13:10.273Z,12.68
2023-05-22T22:15:37.999Z,12.64
2023-05-22T22:18:05.886Z,12.58
2023-05-22T22:20:44.454Z,12.53
2023-05-22T22:23:13.218Z,12.49
2023-05-22T22:25:40.969Z,12.45
2023-05-22T22:28:08.705Z,12.40
2023-05-22T22:30:36.445Z,12.36
2023-05-22T22:33:04.301Z,12.31
2023-05-22T22:35:32.133Z,12.27
2023-05-22T22:37:59.861Z,12.24
2023-05-22T22:40:27.948Z,12.22
2023-05-22T22:42:55.665Z,12.19
2023-05-22T22:45:23.467Z,12.18
2023-05-22T22:47:53.203Z,12.14
2023-05-22T22:50:21.447Z,12.11
2023-05-22T22:52:49.447Z,12.07
2023-05-22T22:55:17.490Z,12.04
2023-05-22T22:57:50.022Z,12.00
2023-05-22T23:00:19.276Z,11.97
2023-05-22T23:02:47.361Z,11.94
2023-05-22T23:05:20.034Z,11.90
2023-05-22T23:07:48.807Z,11.86
2023-05-22T23:10:16.617Z,11.82
2023-05-22T23:12:44.367Z,11.80
2023-05-22T23:15:13.759Z,11.76
2023-05-22T23:17:42.180Z,11.73
2023-05-22T23:20:11.270Z,11.69
2023-05-22T23:22:39.122Z,11.66
2023-05-22T23:25:07.411Z,11.64
2023-05-22T23:27:36.545Z,11.62
2023-05-22T23:30:05.467Z,11.60
2023-05-22T23:32:33.239Z,11.56
2023-05-22T23:35:01.009Z,11.54
2023-05-22T23:37:28.886Z,11.51
2023-05-22T23:39:56.564Z,11.48
2023-05-22T23:42:24.283Z,11.45
2023-05-22T23:44:51.981Z,11.43
2023-05-22T23:47:20.044Z,11.40
2023-05-22T23:49:47.727Z,11.38
2023-05-22T23:52:15.482Z,11.35
2023-05-22T23:54:43.206Z,11.31
2023-05-22T23:57:11.063Z,11.28
2023-05-22T23:59:39.231Z,11.24
